Time;durP1;ratioP1;P1;durP2;ratioP2;P2;SDS_P1;SDS_P2;PMS_P1;PMS_P2;Temp;Humidity;BMP_temperature;BMP_pressure;BME280_temperature;BME280_humidity;BME280_pressure;Samples;Min_cycle;Max_cycle;Signal;HPM_P1;HPM_P2
2021/07/05 00:00:37;;;;;;;1.42;0.90;;;;;;;;;;5039935;28;20291;-79
2021/07/05 00:03:03;;;;;;;2.58;0.80;;;;;;;;;;5036573;28;20022;-77
2021/07/05 00:05:29;;;;;;;1.70;0.90;;;;;;;;;;5041566;28;20021;-78
2021/07/05 00:07:56;;;;;;;1.10;0.73;;;;;;;;;;5041494;28;20029;-78
2021/07/05 00:10:24;;;;;;;1.45;0.77;;;;;;;;;;5042585;28;20505;-78
2021/07/05 00:12:50;;;;;;;1.67;1.00;;;;;;;;;;5041533;28;20044;-78
2021/07/05 00:15:21;;;;;;;1.63;0.80;;;;;;;;;;5041109;28;20022;-78
2021/07/05 00:17:48;;;;;;;1.55;0.65;;;;;;;;;;5039915;28;20055;-78
2021/07/05 00:20:14;;;;;;;;;;;;;;;;;;5038326;28;20043;-78
2021/07/05 00:22:40;;;;;;;1.23;0.73;;;;;;;;;;5038838;28;19994;-78
2021/07/05 00:25:07;;;;;;;2.10;0.77;;;;;;;;;;5039392;28;20075;-78
2021/07/05 00:27:33;;;;;;;2.27;0.90;;;;;;;;;;5038572;28;20025;-78
2021/07/05 00:29:59;;;;;;;0.87;0.73;;;;;;;;;;5039155;28;20262;-78
2021/07/05 00:32:25;;;;;;;2.15;0.93;;;;;;;;;;5039184;28;20494;-78
2021/07/05 00:34:51;;;;;;;2.57;0.90;;;;;;;;;;5039995;28;20082;-78
2021/07/05 00:37:17;;;;;;;1.02;0.70;;;;;;;;;;5038197;28;20503;-78
2021/07/05 00:39:43;;;;;;;2.57;0.83;;;;;;;;;;5039833;28;20045;-78
2021/07/05 00:42:09;;;;;;;1.17;0.80;;;;;;;;;;5039436;28;20494;-78
2021/07/05 00:44:37;;;;;;;0.70;0.70;;;;;;;;;;5040208;28;20033;-78
2021/07/05 00:47:03;;;;;;;0.93;0.60;;;;;;;;;;5039683;28;20025;-78
2021/07/05 00:49:29;;;;;;;1.50;0.80;;;;;;;;;;5039936;28;20425;-78
2021/07/05 00:51:56;;;;;;;1.50;0.60;;;;;;;;;;5040351;28;20464;-78
2021/07/05 00:54:22;;;;;;;2.30;0.98;;;;;;;;;;5039898;28;20363;-78
2021/07/05 00:56:48;;;;;;;2.67;0.93;;;;;;;;;;5039923;28;20103;-78
2021/07/05 00:59:16;;;;;;;2.10;0.87;;;;;;;;;;5038083;28;20108;-78
2021/07/05 01:01:42;;;;;;;2.25;0.70;;;;;;;;;;5038000;28;20021;-78
2021/07/05 01:04:09;;;;;;;1.03;0.70;;;;;;;;;;5038621;28;20180;-78
2021/07/05 01:06:35;;;;;;;2.08;0.80;;;;;;;;;;5039574;28;20024;-78
2021/07/05 01:09:01;;;;;;;2.25;0.80;;;;;;;;;;5039299;28;20049;-79
2021/07/05 01:11:27;;;;;;;0.82;0.65;;;;;;;;;;5038966;28;20402;-78
2021/07/05 01:13:53;;;;;;;0.90;0.63;;;;;;;;;;5039665;28;20083;-77
2021/07/05 01:16:19;;;;;;;2.28;0.80;;;;;;;;;;5039265;28;20542;-78
2021/07/05 01:18:45;;;;;;;1.03;0.80;;;;;;;;;;5038348;28;20549;-77
2021/07/05 01:21:11;;;;;;;1.98;0.60;;;;;;;;;;5039017;28;20498;-78
2021/07/05 01:23:38;;;;;;;1.13;0.70;;;;;;;;;;5038816;28;20042;-78
2021/07/05 01:26:04;;;;;;;1.52;1.00;;;;;;;;;;5039743;28;20052;-78
2021/07/05 01:28:30;;;;;;;2.80;0.90;;;;;;;;;;5038767;28;20030;-78
2021/07/05 01:30:56;;;;;;;1.27;0.80;;;;;;;;;;5037521;28;20029;-78
2021/07/05 01:33:22;;;;;;;0.83;0.73;;;;;;;;;;5038871;28;20040;-79
2021/07/05 01:35:48;;;;;;;0.93;0.55;;;;;;;;;;5039427;28;20119;-79
2021/07/05 01:38:17;;;;;;;1.55;0.90;;;;;;;;;;5036733;28;20132;-79
2021/07/05 01:40:44;;;;;;;1.85;0.77;;;;;;;;;;5038258;28;20057;-79
2021/07/05 01:43:11;;;;;;;1.30;0.90;;;;;;;;;;5039260;28;20024;-79
2021/07/05 01:45:37;;;;;;;1.48;0.90;;;;;;;;;;5038946;28;20077;-79
2021/07/05 01:48:03;;;;;;;1.17;0.68;;;;;;;;;;5037859;28;20037;-79
2021/07/05 01:50:30;;;;;;;1.20;0.80;;;;;;;;;;5037744;28;20029;-78
2021/07/05 01:52:56;;;;;;;;;;;;;;;;;;5038441;28;20028;-79
2021/07/05 01:55:42;;;;;;;2.03;0.73;;;;;;;;;;5038467;28;19909;-78
2021/07/05 01:58:08;;;;;;;2.25;0.85;;;;;;;;;;5037047;28;20119;-78
2021/07/05 02:00:35;;;;;;;1.65;0.68;;;;;;;;;;5037850;28;20076;-79
2021/07/05 02:03:02;;;;;;;2.40;0.90;;;;;;;;;;5036225;28;20413;-79
2021/07/05 02:05:28;;;;;;;3.65;0.80;;;;;;;;;;5036926;28;20466;-80
2021/07/05 02:07:55;;;;;;;0.70;0.70;;;;;;;;;;5035286;28;20025;-79
2021/07/05 02:10:25;;;;;;;3.78;0.85;;;;;;;;;;5038290;28;20026;-79
2021/07/05 02:12:57;;;;;;;3.13;0.70;;;;;;;;;;5037542;28;20040;-79
2021/07/05 02:15:24;;;;;;;4.43;0.80;;;;;;;;;;5039541;28;20530;-79
2021/07/05 02:17:51;;;;;;;3.28;0.73;;;;;;;;;;5040808;28;20394;-78
2021/07/05 02:20:19;;;;;;;1.55;0.73;;;;;;;;;;5038280;28;20035;-79
2021/07/05 02:22:46;;;;;;;1.45;0.70;;;;;;;;;;5039024;28;20018;-80
2021/07/05 02:25:13;;;;;;;4.55;0.88;;;;;;;;;;5035252;28;20041;-80
2021/07/05 02:27:40;;;;;;;3.15;0.90;;;;;;;;;;5031729;28;20065;-79
2021/07/05 02:30:09;;;;;;;2.15;0.88;;;;;;;;;;5035159;28;20021;-80
2021/07/05 02:32:36;;;;;;;3.15;0.80;;;;;;;;;;5049080;28;20036;-79
2021/07/05 02:35:02;;;;;;;5.60;0.90;;;;;;;;;;5053593;28;20025;-79
2021/07/05 02:37:28;;;;;;;1.17;0.93;;;;;;;;;;5051322;28;20033;-79
2021/07/05 02:39:54;;;;;;;1.60;0.97;;;;;;;;;;5053181;28;20440;-80
2021/07/05 02:42:20;;;;;;;2.30;0.98;;;;;;;;;;5045858;28;20075;-78
2021/07/05 02:44:46;;;;;;;2.07;0.80;;;;;;;;;;5034786;28;20378;-78
2021/07/05 02:47:12;;;;;;;1.65;0.80;;;;;;;;;;5052719;28;20481;-79
2021/07/05 02:49:38;;;;;;;1.90;0.70;;;;;;;;;;5051850;28;20021;-80
2021/07/05 02:52:04;;;;;;;3.60;0.80;;;;;;;;;;5053023;28;20029;-78
2021/07/05 02:54:30;;;;;;;2.77;0.73;;;;;;;;;;5042961;28;20119;-79
2021/07/05 02:56:57;;;;;;;1.67;0.80;;;;;;;;;;5040177;28;20045;-79
2021/07/05 02:59:23;;;;;;;2.13;0.70;;;;;;;;;;5032980;28;20053;-79
2021/07/05 03:01:49;;;;;;;1.77;1.00;;;;;;;;;;5046285;28;20029;-79
2021/07/05 03:04:15;;;;;;;2.43;0.90;;;;;;;;;;5031635;28;20104;-78
2021/07/05 03:06:41;;;;;;;3.17;0.98;;;;;;;;;;5033186;28;20537;-79
2021/07/05 03:09:07;;;;;;;5.65;1.30;;;;;;;;;;5033536;28;20449;-80
2021/07/05 03:11:34;;;;;;;8.97;1.63;;;;;;;;;;5039062;28;20032;-79
2021/07/05 03:14:01;;;;;;;;;;;;;;;;;;5036544;28;20124;-80
2021/07/05 03:16:27;;;;;;;;;;;;;;;;;;5042007;28;20317;-79
2021/07/05 03:18:52;;;;;;;;;;;;;;;;;;5038203;28;19905;-78
2021/07/05 03:21:19;;;;;;;;;;;;;;;;;;5037487;28;19909;-78
2021/07/05 03:23:45;;;;;;;;;;;;;;;;;;5041584;28;19912;-78
2021/07/05 03:26:11;;;;;;;;;;;;;;;;;;5056745;28;20004;-80
2021/07/05 03:28:37;;;;;;;;;;;;;;;;;;5041602;28;19916;-78
2021/07/05 03:31:03;;;;;;;;;;;;;;;;;;5045721;28;19914;-78
2021/07/05 03:33:29;;;;;;;;;;;;;;;;;;5049414;28;19957;-78
2021/07/05 03:35:55;;;;;;;;;;;;;;;;;;5073442;28;19911;-78
2021/07/05 03:38:21;;;;;;;;;;;;;;;;;;5039243;28;20457;-78
2021/07/05 03:40:47;;;;;;;;;;;;;;;;;;5053609;28;19940;-77
2021/07/05 03:43:13;;;;;;;;;;;;;;;;;;5054184;28;19909;-76
2021/07/05 03:45:39;;;;;;;;;;;;;;;;;;5055444;28;19908;-76
2021/07/05 03:48:05;;;;;;;;;;;;;;;;;;5055586;28;19912;-77
2021/07/05 03:50:31;;;;;;;;;;;;;;;;;;5051303;28;19904;-78
2021/07/05 03:52:57;;;;;;;;;;;;;;;;;;5055695;28;20277;-78
2021/07/05 03:55:23;;;;;;;;;;;;;;;;;;5053977;28;19970;-78
2021/07/05 03:57:49;;;;;;;;;;;;;;;;;;5051586;28;19962;-75
2021/07/05 04:00:14;;;;;;;;;;;;;;;;;;5055235;28;19909;-77
2021/07/05 04:02:41;;;;;;;;;;;;;;;;;;5046206;28;19912;-75
2021/07/05 04:05:06;;;;;;;;;;;;;;;;;;5034790;28;20286;-76
2021/07/05 04:07:33;;;;;;;;;;;;;;;;;;5037079;28;19916;-77
2021/07/05 04:09:59;;;;;;;;;;;;;;;;;;5073548;28;19951;-76
2021/07/05 04:12:25;;;;;;;;;;;;;;;;;;5074208;28;19904;-79
2021/07/05 04:14:51;;;;;;;;;;;;;;;;;;5064541;28;19905;-77
2021/07/05 04:17:17;;;;;;;;;;;;;;;;;;5054841;28;19932;-77
2021/07/05 04:19:45;;;;;;;;;;;;;;;;;;5051948;28;20274;-78
2021/07/05 04:22:11;;;;;;;;;;;;;;;;;;5034359;28;19909;-77
2021/07/05 04:24:37;;;;;;;;;;;;;;;;;;4342555;28;10000751;-77
2021/07/05 04:27:02;;;;;;;;;;;;;;;;;;5042955;28;19916;-78
2021/07/05 04:29:28;;;;;;;;;;;;;;;;;;5069235;28;20003;-77
2021/07/05 04:31:54;;;;;;;;;;;;;;;;;;5056053;28;19943;-78
2021/07/05 04:34:20;;;;;;;;;;;;;;;;;;5051322;28;19919;-79
2021/07/05 04:36:46;;;;;;;;;;;;;;;;;;5043020;28;19980;-80
2021/07/05 04:39:12;;;;;;;;;;;;;;;;;;5057718;28;19904;-80
2021/07/05 04:41:38;;;;;;;;;;;;;;;;;;5058125;28;19921;-78
2021/07/05 04:44:04;;;;;;;;;;;;;;;;;;5056746;28;19978;-79
2021/07/05 04:46:30;;;;;;;;;;;;;;;;;;5051313;28;20015;-77
2021/07/05 04:48:56;;;;;;;;;;;;;;;;;;5038533;28;19909;-79
2021/07/05 04:51:23;;;;;;;;;;;;;;;;;;5051346;28;19905;-80
2021/07/05 04:53:49;;;;;;;;;;;;;;;;;;5035407;28;19959;-78
2021/07/05 04:56:15;;;;;;;;;;;;;;;;;;5036035;28;20278;-79
2021/07/05 04:58:41;;;;;;;;;;;;;;;;;;5041417;28;19904;-78
2021/07/05 05:01:07;;;;;;;;;;;;;;;;;;5062442;28;20003;-79
2021/07/05 05:03:33;;;;;;;;;;;;;;;;;;5055532;28;19919;-78
2021/07/05 05:05:59;;;;;;;;;;;;;;;;;;5055415;28;19904;-78
2021/07/05 05:08:25;;;;;;;;;;;;;;;;;;5054818;28;20380;-79
2021/07/05 05:10:51;;;;;;;;;;;;;;;;;;5048146;28;19951;-79
2021/07/05 05:13:17;;;;;;;;;;;;;;;;;;5034703;28;19912;-78
2021/07/05 05:15:43;;;;;;;;;;;;;;;;;;5034014;28;19909;-79
2021/07/05 05:18:09;;;;;;;;;;;;;;;;;;5035253;28;19913;-78
2021/07/05 05:20:35;;;;;;;;;;;;;;;;;;5035683;28;19920;-78
2021/07/05 05:23:01;;;;;;;;;;;;;;;;;;5034996;28;19909;-78
2021/07/05 05:25:26;;;;;;;;;;;;;;;;;;5036519;28;20435;-79
2021/07/05 05:27:52;;;;;;;;;;;;;;;;;;5045402;28;19912;-79
2021/07/05 05:30:18;;;;;;;;;;;;;;;;;;5041015;28;19913;-78
2021/07/05 05:32:44;;;;;;;;;;;;;;;;;;5043775;28;19905;-79
2021/07/05 05:35:10;;;;;;;;;;;;;;;;;;5040364;28;19913;-79
2021/07/05 05:37:36;;;;;;;;;;;;;;;;;;5060420;28;19915;-77
2021/07/05 05:40:02;;;;;;;;;;;;;;;;;;5062223;28;19916;-77
2021/07/05 05:42:28;;;;;;;;;;;;;;;;;;5062727;28;19908;-78
2021/07/05 05:44:54;;;;;;;;;;;;;;;;;;5067120;28;19917;-80
2021/07/05 05:47:20;;;;;;;;;;;;;;;;;;5065511;28;19970;-77
2021/07/05 05:49:46;;;;;;;;;;;;;;;;;;5067887;28;19904;-78
2021/07/05 05:52:12;;;;;;;;;;;;;;;;;;5061383;28;20018;-77
2021/07/05 05:54:38;;;;;;;;;;;;;;;;;;5065843;28;19940;-80
2021/07/05 05:57:04;;;;;;;;;;;;;;;;;;5058737;28;19912;-80
2021/07/05 05:59:33;;;;;;;;;;;;;;;;;;5050220;28;19932;-79
2021/07/05 06:01:59;;;;;;;;;;;;;;;;;;5054514;28;19909;-81
2021/07/05 06:04:25;;;;;;;;;;;;;;;;;;5051391;28;20455;-78
2021/07/05 06:06:52;;;;;;;;;;;;;;;;;;5042774;28;19932;-79
2021/07/05 06:09:18;;;;;;;;;;;;;;;;;;5040562;28;19967;-77
2021/07/05 06:11:44;;;;;;;;;;;;;;;;;;5033991;28;19940;-77
2021/07/05 06:14:10;;;;;;;;;;;;;;;;;;5035509;28;19936;-77
2021/07/05 06:16:36;;;;;;;;;;;;;;;;;;5041888;28;20003;-77
2021/07/05 06:19:02;;;;;;;;;;;;;;;;;;5052231;28;20634;-77
2021/07/05 06:21:28;;;;;;;;;;;;;;;;;;5038488;28;19936;-77
2021/07/05 06:23:54;;;;;;;;;;;;;;;;;;5052633;28;20027;-77
2021/07/05 06:26:20;;;;;;;;;;;;;;;;;;5051729;28;19915;-77
2021/07/05 06:28:46;;;;;;;;;;;;;;;;;;5043421;28;19920;-78
2021/07/05 06:31:12;;;;;;;;;;;;;;;;;;5046045;28;20324;-77
2021/07/05 06:33:38;;;;;;;;;;;;;;;;;;5037721;28;20007;-76
2021/07/05 06:36:04;;;;;;;;;;;;;;;;;;5050623;28;19955;-77
2021/07/05 06:38:31;;;;;;;;;;;;;;;;;;5051222;28;19913;-78
2021/07/05 06:40:57;;;;;;;;;;;;;;;;;;5051867;28;20008;-77
2021/07/05 06:43:23;;;;;;;;;;;;;;;;;;5054916;28;21649;-78
2021/07/05 06:45:49;;;;;;;;;;;;;;;;;;5058617;28;19928;-78
2021/07/05 06:48:15;;;;;;;;;;;;;;;;;;5058338;28;19908;-77
2021/07/05 06:50:41;;;;;;;;;;;;;;;;;;5059261;28;20726;-77
2021/07/05 06:53:07;;;;;;;;;;;;;;;;;;5059062;28;19908;-79
2021/07/05 06:55:33;;;;;;;;;;;;;;;;;;5059716;28;20008;-79
2021/07/05 06:57:59;;;;;;;;;;;;;;;;;;5065305;28;19999;-78
2021/07/05 07:00:25;;;;;;;;;;;;;;;;;;5067842;28;19947;-79
2021/07/05 07:02:51;;;;;;;;;;;;;;;;;;5066927;28;19908;-79
2021/07/05 07:05:17;;;;;;;;;;;;;;;;;;5059250;28;19950;-84
2021/07/05 07:07:43;;;;;;;;;;;;;;;;;;5059487;28;19908;-87
2021/07/05 07:10:09;;;;;;;;;;;;;;;;;;5062244;28;19905;-87
2021/07/05 07:12:36;;;;;;;;;;;;;;;;;;5063018;28;19905;-83
2021/07/05 07:15:02;;;;;;;;;;;;;;;;;;5074421;28;19991;-84
2021/07/05 07:17:35;;;;;;;;;;;;;;;;;;5055901;28;20563;-84
2021/07/05 07:20:01;;;;;;;;;;;;;;;;;;5048757;28;19924;-84
2021/07/05 07:22:27;;;;;;;;;;;;;;;;;;5036757;28;19905;-84
2021/07/05 07:24:53;;;;;;;;;;;;;;;;;;5036395;28;19913;-83
2021/07/05 07:27:19;;;;;;;;;;;;;;;;;;5037901;28;19909;-83
2021/07/05 07:29:45;;;;;;;;;;;;;;;;;;5038177;28;19951;-84
2021/07/05 07:32:11;;;;;;;;;;;;;;;;;;5045810;28;19905;-83
2021/07/05 07:34:37;;;;;;;;;;;;;;;;;;5047290;28;19905;-85
2021/07/05 07:37:05;;;;;;;;;;;;;;;;;;5055776;28;19909;-84
2021/07/05 07:39:37;;;;;;;;;;;;;;;;;;5058343;28;19905;-84
2021/07/05 07:42:03;;;;;;;;;;;;;;;;;;5055412;28;19917;-85
2021/07/05 07:44:28;;;;;;;;;;;;;;;;;;5039865;28;19915;-83
2021/07/05 07:46:54;;;;;;;;;;;;;;;;;;5037106;28;19911;-85
2021/07/05 07:49:20;;;;;;;;;;;;;;;;;;5051868;28;19912;-84
2021/07/05 07:51:46;;;;;;;;;;;;;;;;;;5037171;28;19909;-83
2021/07/05 07:54:12;;;;;;;;;;;;;;;;;;5044087;28;20294;-83
2021/07/05 07:56:38;;;;;;;;;;;;;;;;;;5039756;28;19948;-81
2021/07/05 07:59:04;;;;;;;;;;;;;;;;;;5042574;28;19966;-82
2021/07/05 08:01:30;;;;;;;;;;;;;;;;;;5049261;28;19912;-82
2021/07/05 08:03:56;;;;;;;;;;;;;;;;;;5043353;28;20043;-83
2021/07/05 08:06:22;;;;;;;;;;;;;;;;;;5044706;28;19932;-82
2021/07/05 08:08:51;;;;;;;;;;;;;;;;;;5035892;28;19905;-82
2021/07/05 08:11:18;;;;;;;;;;;;;;;;;;5037823;28;19912;-84
2021/07/05 08:13:44;;;;;;;;;;;;;;;;;;5052192;28;19913;-82
2021/07/05 08:16:11;;;;;;;;;;;;;;;;;;5052683;28;19936;-83
2021/07/05 08:18:37;;;;;;;;;;;;;;;;;;5055146;28;19904;-83
2021/07/05 08:21:06;;;;;;;;;;;;;;;;;;5057945;28;19905;-81
2021/07/05 08:23:32;;;;;;;;;;;;;;;;;;5060731;28;19909;-82
2021/07/05 08:25:59;;;;;;;;;;;;;;;;;;5060502;28;19955;-83
2021/07/05 08:28:33;;;;;;;;;;;;;;;;;;5052695;28;19913;-82
2021/07/05 08:31:00;;;;;;;;;;;;;;;;;;5056017;28;19912;-82
2021/07/05 08:33:26;;;;;;;;;;;;;;;;;;5069589;28;19905;-84
2021/07/05 08:35:53;;;;;;;;;;;;;;;;;;5062860;28;19980;-83
2021/07/05 08:38:19;;;;;;;;;;;;;;;;;;5078505;28;19917;-83
2021/07/05 08:40:45;;;;;;;;;;;;;;;;;;5057736;28;19921;-84
2021/07/05 08:43:11;;;;;;;;;;;;;;;;;;5054777;28;19908;-82
2021/07/05 08:45:39;;;;;;;;;;;;;;;;;;5060202;28;19915;-83
2021/07/05 08:48:05;;;;;;;;;;;;;;;;;;5057371;28;19917;-84
2021/07/05 08:50:31;;;;;;;;;;;;;;;;;;5055759;28;20378;-83
2021/07/05 08:52:57;;;;;;;;;;;;;;;;;;5057875;28;19927;-82
2021/07/05 08:55:23;;;;;;;;;;;;;;;;;;5061900;28;19913;-82
2021/07/05 08:57:49;;;;;;;;;;;;;;;;;;5053553;28;19949;-84
2021/07/05 09:00:15;;;;;;;;;;;;;;;;;;5050167;28;19909;-82
2021/07/05 09:02:41;;;;;;;;;;;;;;;;;;5045354;28;19913;-82
2021/07/05 09:05:07;;;;;;;;;;;;;;;;;;5039736;28;20277;-82
2021/07/05 09:07:33;;;;;;;;;;;;;;;;;;5043235;28;19909;-82
2021/07/05 09:09:59;;;;;;;;;;;;;;;;;;5048390;28;19909;-82
2021/07/05 09:12:25;;;;;;;;;;;;;;;;;;5042502;28;19931;-83
2021/07/05 09:14:51;;;;;;;;;;;;;;;;;;5038362;28;20347;-82
2021/07/05 09:17:17;;;;;;;;;;;;;;;;;;5042329;28;19915;-83
2021/07/05 09:19:43;;;;;;;;;;;;;;;;;;5041319;28;19908;-83
2021/07/05 09:22:09;;;;;;;;;;;;;;;;;;5039524;28;19984;-82
2021/07/05 09:24:35;;;;;;;;;;;;;;;;;;5043587;28;19924;-85
2021/07/05 09:27:01;;;;;;;;;;;;;;;;;;5040612;28;19944;-83
2021/07/05 09:29:27;;;;;;;;;;;;;;;;;;5042648;28;19909;-82
2021/07/05 09:31:53;;;;;;;;;;;;;;;;;;5043004;28;19909;-82
2021/07/05 09:34:19;;;;;;;;;;;;;;;;;;5041697;28;19909;-82
2021/07/05 09:36:44;;;;;;;;;;;;;;;;;;5042984;28;19999;-81
2021/07/05 09:39:11;;;;;;;;;;;;;;;;;;5043849;28;20003;-82
2021/07/05 09:41:36;;;;;;;;;;;;;;;;;;5041685;28;20378;-82
2021/07/05 09:44:02;;;;;;;;;;;;;;;;;;5038843;28;19927;-83
2021/07/05 09:46:30;;;;;;;;;;;;;;;;;;5042401;28;20247;-83
2021/07/05 09:48:56;;;;;;;;;;;;;;;;;;5040590;28;19912;-82
2021/07/05 09:51:21;;;;;;;;;;;;;;;;;;5040206;28;20023;-84
2021/07/05 09:53:48;;;;;;;;;;;;;;;;;;5041699;28;19917;-81
2021/07/05 09:56:14;;;;;;;;;;;;;;;;;;4694005;28;10000549;-87
2021/07/05 09:58:40;;;;;;;;;;;;;;;;;;5039781;28;19913;-84
2021/07/05 10:01:07;;;;;;;;;;;;;;;;;;5045266;28;19963;-83
2021/07/05 10:03:38;;;;;;;;;;;;;;;;;;5039317;28;19939;-84
2021/07/05 10:06:05;;;;;;;;;;;;;;;;;;5039228;28;20024;-84
2021/07/05 10:08:31;;;;;;;;;;;;;;;;;;5039643;28;19951;-85
2021/07/05 10:10:57;;;;;;;;;;;;;;;;;;5042655;28;19932;-83
2021/07/05 10:13:23;;;;;;;;;;;;;;;;;;5042847;28;19909;-85
2021/07/05 10:15:50;;;;;;;;;;;;;;;;;;5040887;28;19913;-82
2021/07/05 10:18:16;;;;;;;;;;;;;;;;;;5037254;28;19913;-83
2021/07/05 10:20:41;;;;;;;;;;;;;;;;;;5038611;28;20768;-83
2021/07/05 10:23:07;;;;;;;;;;;;;;;;;;5040350;28;19905;-82
2021/07/05 10:25:33;;;;;;;;;;;;;;;;;;5043792;28;19971;-83
2021/07/05 10:28:00;;;;;;;;;;;;;;;;;;5037785;28;19918;-83
2021/07/05 10:30:26;;;;;;;;;;;;;;;;;;5043339;28;19936;-83
2021/07/05 10:32:52;;;;;;;;;;;;;;;;;;5042926;28;19909;-82
2021/07/05 10:35:20;;;;;;;;;;;;;;;;;;5043068;28;19916;-82
2021/07/05 10:37:46;;;;;;;;;;;;;;;;;;5042302;28;19996;-82
2021/07/05 10:40:12;;;;;;;;;;;;;;;;;;5038580;28;20007;-83
2021/07/05 10:42:38;;;;;;;;;;;;;;;;;;5039327;28;19909;-82
2021/07/05 10:45:05;;;;;;;;;;;;;;;;;;5041036;28;19912;-82
2021/07/05 10:47:31;;;;;;;;;;;;;;;;;;5038218;28;19916;-82
2021/07/05 10:50:01;;;;;;;;;;;;;;;;;;5040222;28;19909;-82
2021/07/05 10:52:28;;;;;;;;;;;;;;;;;;5039474;28;19915;-82
2021/07/05 10:54:54;;;;;;;;;;;;;;;;;;5042608;28;19905;-83
2021/07/05 10:57:20;;;;;;;;;;;;;;;;;;5039060;28;19917;-84
2021/07/05 10:59:46;;;;;;;;;;;;;;;;;;5036854;28;19940;-80
2021/07/05 11:02:13;;;;;;;;;;;;;;;;;;5039867;28;19912;-79
2021/07/05 11:04:39;;;;;;;;;;;;;;;;;;5040185;28;19962;-80
2021/07/05 11:07:05;;;;;;;;;;;;;;;;;;5037806;28;19912;-83
2021/07/05 11:09:31;;;;;;;;;;;;;;;;;;5037954;28;20003;-80
2021/07/05 11:11:59;;;;;;;;;;;;;;;;;;5037730;28;19912;-79
2021/07/05 11:14:26;;;;;;;;;;;;;;;;;;5039444;28;19943;-80
2021/07/05 11:16:52;;;;;;;;;;;;;;;;;;5038724;28;19913;-79
2021/07/05 11:19:17;;;;;;;;;;;;;;;;;;5037992;28;19908;-80
2021/07/05 11:21:43;;;;;;;;;;;;;;;;;;5036223;28;20025;-79
2021/07/05 11:24:11;;;;;;;;;;;;;;;;;;5039751;28;19975;-79
2021/07/05 11:26:37;;;;;;;;;;;;;;;;;;5039125;28;20542;-80
2021/07/05 11:29:03;;;;;;;;;;;;;;;;;;5039149;28;19948;-79
2021/07/05 11:31:29;;;;;;;;;;;;;;;;;;5041623;28;20378;-79
2021/07/05 11:33:55;;;;;;;;;;;;;;;;;;5042444;28;19908;-81
2021/07/05 11:36:22;;;;;;;;;;;;;;;;;;5043874;28;19905;-80
2021/07/05 11:38:48;;;;;;;;;;;;;;;;;;5042547;28;19915;-79
2021/07/05 11:41:14;;;;;;;;;;;;;;;;;;5041137;28;19924;-79
2021/07/05 11:43:40;;;;;;;;;;;;;;;;;;5040221;28;19924;-83
2021/07/05 11:46:06;;;;;;;;;;;;;;;;;;5042912;28;19959;-78
2021/07/05 11:48:32;;;;;;;;;;;;;;;;;;5040133;28;20026;-80
2021/07/05 11:50:58;;;;;;;;;;;;;;;;;;5043190;28;19908;-79
2021/07/05 11:53:24;;;;;;;;;;;;;;;;;;5041436;28;19992;-79
2021/07/05 11:55:50;;;;;;;;;;;;;;;;;;5043064;28;20357;-79
2021/07/05 11:58:17;;;;;;;;;;;;;;;;;;5040778;28;19921;-80
2021/07/05 12:00:44;;;;;;;;;;;;;;;;;;5041859;28;19948;-80
2021/07/05 12:03:10;;;;;;;;;;;;;;;;;;5041144;28;20369;-79
2021/07/05 12:05:36;;;;;;;;;;;;;;;;;;5042088;28;20896;-79
2021/07/05 12:08:02;;;;;;;;;;;;;;;;;;5040496;28;19912;-79
2021/07/05 12:10:28;;;;;;;;;;;;;;;;;;5041125;28;19912;-80
2021/07/05 12:12:54;;;;;;;;;;;;;;;;;;5041505;28;19912;-81
2021/07/05 12:15:20;;;;;;;;;;;;;;;;;;5042316;28;19927;-80
2021/07/05 12:17:46;;;;;;;;;;;;;;;;;;5041087;28;19909;-87
2021/07/05 12:20:12;;;;;;;;;;;;;;;;;;5040676;28;19956;-84
2021/07/05 12:22:38;;;;;;;;;;;;;;;;;;5040802;28;19920;-84
2021/07/05 12:25:04;;;;;;;;;;;;;;;;;;5040766;28;19959;-83
2021/07/05 12:27:30;;;;;;;;;;;;;;;;;;5040047;28;19939;-83
2021/07/05 12:29:58;;;;;;;;;;;;;;;;;;5041016;28;19937;-84
2021/07/05 12:32:32;;;;;;;;;;;;;;;;;;5042726;28;20009;-82
2021/07/05 12:34:58;;;;;;;;;;;;;;;;;;5036442;28;19913;-85
2021/07/05 12:37:24;;;;;;;;;;;;;;;;;;5042142;28;20433;-82
2021/07/05 12:39:50;;;;;;;;;;;;;;;;;;5042134;28;20402;-81
2021/07/05 12:42:16;;;;;;;;;;;;;;;;;;5038496;28;19923;-82
2021/07/05 12:44:42;;;;;;;;;;;;;;;;;;5035967;28;19956;-81
2021/07/05 12:47:10;;;;;;;;;;;;;;;;;;5037311;28;19913;-81
2021/07/05 12:49:36;;;;;;;;;;;;;;;;;;5038562;28;20362;-80
2021/07/05 12:52:05;;;;;;;;;;;;;;;;;;5038573;28;19911;-81
2021/07/05 12:54:31;;;;;;;;;;;;;;;;;;5039910;28;19905;-81
2021/07/05 12:56:56;;;;;;;;;;;;;;;;;;5038655;28;19943;-80
2021/07/05 12:59:22;;;;;;;;;;;;;;;;;;5038375;28;19905;-81
2021/07/05 13:01:48;;;;;;;;;;;;;;;;;;5038127;28;19904;-81
2021/07/05 13:04:14;;;;;;;;;;;;;;;;;;5040414;28;19919;-81
2021/07/05 13:06:40;;;;;;;;;;;;;;;;;;5036554;28;19909;-81
2021/07/05 13:09:07;;;;;;;;;;;;;;;;;;5039918;28;20679;-81
2021/07/05 13:11:33;;;;;;;;;;;;;;;;;;5038527;28;19928;-80
2021/07/05 13:13:58;;;;;;;;;;;;;;;;;;5038992;28;20270;-81
2021/07/05 13:16:24;;;;;;;;;;;;;;;;;;5039201;28;19916;-81
2021/07/05 13:18:51;;;;;;;;;;;;;;;;;;5041256;28;19924;-81
2021/07/05 13:21:16;;;;;;;;;;;;;;;;;;5034093;28;19985;-81
2021/07/05 13:23:48;;;;;;;;;;;;;;;;;;5037126;28;20352;-81
2021/07/05 13:26:14;;;;;;;;;;;;;;;;;;5035751;28;19917;-82
2021/07/05 13:28:40;;;;;;;;;;;;;;;;;;5038247;28;19923;-82
2021/07/05 13:31:06;;;;;;;;;;;;;;;;;;5036184;28;19975;-81
2021/07/05 13:33:33;;;;;;;;;;;;;;;;;;5033385;28;19912;-82
2021/07/05 13:35:59;;;;;;;;;;;;;;;;;;5040067;28;19909;-83
2021/07/05 13:38:33;;;;;;;;;;;;;;;;;;5041710;28;20006;-83
2021/07/05 13:40:59;;;;;;;;;;;;;;;;;;5040097;28;19916;-84
2021/07/05 13:43:25;;;;;;;;;;;;;;;;;;5037766;28;19943;-82
2021/07/05 13:45:51;;;;;;;;;;;;;;;;;;5039410;28;19948;-80
2021/07/05 13:48:17;;;;;;;;;;;;;;;;;;5034621;28;19992;-82
2021/07/05 13:50:43;;;;;;;;;;;;;;;;;;5041110;28;20288;-78
2021/07/05 13:53:08;;;;;;;;;;;;;;;;;;5039244;28;19913;-83
2021/07/05 13:55:35;;;;;;;;;;;;;;;;;;5037183;28;20003;-81
2021/07/05 13:58:01;;;;;;;;;;;;;;;;;;5040133;28;20377;-81
2021/07/05 14:00:27;;;;;;;;;;;;;;;;;;5039072;28;19908;-80
2021/07/05 14:02:53;;;;;;;;;;;;;;;;;;5039193;28;20381;-82
2021/07/05 14:05:19;;;;;;;;;;;;;;;;;;5037183;28;20007;-81
2021/07/05 14:07:45;;;;;;;;;;;;;;;;;;5037986;28;19916;-82
2021/07/05 14:10:11;;;;;;;;;;;;;;;;;;5040366;28;19911;-80
2021/07/05 14:12:37;;;;;;;;;;;;;;;;;;5039829;28;19976;-82
2021/07/05 14:15:03;;;;;;;;;;;;;;;;;;5039354;28;19936;-83
2021/07/05 14:17:29;;;;;;;;;;;;;;;;;;5041390;28;19909;-84
2021/07/05 14:19:55;;;;;;;;;;;;;;;;;;5039357;28;19962;-81
2021/07/05 14:22:21;;;;;;;;;;;;;;;;;;5038415;28;19975;-82
2021/07/05 14:24:47;;;;;;;;;;;;;;;;;;5039945;28;19917;-80
2021/07/05 14:27:12;;;;;;;;;;;;;;;;;;5035220;28;19991;-81
2021/07/05 14:29:40;;;;;;;;;;;;;;;;;;5039966;28;19916;-81
2021/07/05 14:32:06;;;;;;;;;;;;;;;;;;5038353;28;19927;-82
2021/07/05 14:34:32;;;;;;;;;;;;;;;;;;5038932;28;20383;-81
2021/07/05 14:36:58;;;;;;;;;;;;;;;;;;5041056;28;19954;-82
2021/07/05 14:39:24;;;;;;;;;;;;;;;;;;5038916;28;19949;-79
2021/07/05 14:41:51;;;;;;;;;;;;;;;;;;5037265;28;19927;-79
2021/07/05 14:44:16;;;;;;;;;;;;;;;;;;5036676;28;19966;-80
2021/07/05 14:46:42;;;;;;;;;;;;;;;;;;5036287;28;19917;-81
2021/07/05 14:49:08;;;;;;;;;;;;;;;;;;5037330;28;19986;-80
2021/07/05 14:51:34;;;;;;;;;;;;;;;;;;5035142;28;20039;-82
2021/07/05 14:54:00;;;;;;;;;;;;;;;;;;5030791;28;19924;-80
2021/07/05 14:56:26;;;;;;;;;;;;;;;;;;5037061;28;19913;-81
2021/07/05 14:58:53;;;;;;;;;;;;;;;;;;5037776;28;20012;-81
2021/07/05 15:01:19;;;;;;;;;;;;;;;;;;5036516;28;19963;-81
2021/07/05 15:03:45;;;;;;;;;;;;;;;;;;5035252;28;19952;-80
2021/07/05 15:06:11;;;;;;;;;;;;;;;;;;5041568;28;19963;-81
2021/07/05 15:08:37;;;;;;;;;;;;;;;;;;5041428;28;20301;-80
2021/07/05 15:11:03;;;;;;;;;;;;;;;;;;5042267;28;20370;-80
2021/07/05 15:13:30;;;;;;;;;;;;;;;;;;5038975;28;19908;-81
2021/07/05 15:15:56;;;;;;;;;;;;;;;;;;5040446;28;20313;-80
2021/07/05 15:18:22;;;;;;;;;;;;;;;;;;5042133;28;19919;-80
2021/07/05 15:20:48;;;;;;;;;;;;;;;;;;5037191;28;19958;-80
2021/07/05 15:23:14;;;;;;;;;;;;;;;;;;5040981;28;20645;-80
2021/07/05 15:25:40;;;;;;;;;;;;;;;;;;5037446;28;19917;-81
2021/07/05 15:28:06;;;;;;;;;;;;;;;;;;5038679;28;19940;-80
2021/07/05 15:30:32;;;;;;;;;;;;;;;;;;5041788;28;20412;-81
2021/07/05 15:32:58;;;;;;;;;;;;;;;;;;5039327;28;19908;-81
2021/07/05 15:35:24;;;;;;;;;;;;;;;;;;5039813;28;19932;-81
2021/07/05 15:37:50;;;;;;;;;;;;;;;;;;5041754;28;19913;-80
2021/07/05 15:40:16;;;;;;;;;;;;;;;;;;5043208;28;19924;-81
2021/07/05 15:42:42;;;;;;;;;;;;;;;;;;5040962;28;19941;-80
2021/07/05 15:45:08;;;;;;;;;;;;;;;;;;5040982;28;19920;-80
2021/07/05 15:47:34;;;;;;;;;;;;;;;;;;5039050;28;20003;-80
2021/07/05 15:50:00;;;;;;;;;;;;;;;;;;5039640;28;19913;-80
2021/07/05 15:52:26;;;;;;;;;;;;;;;;;;5038398;28;19908;-80
2021/07/05 15:54:52;;;;;;;;;;;;;;;;;;5038406;28;19919;-80
2021/07/05 15:57:18;;;;;;;;;;;;;;;;;;5039208;28;20424;-80
2021/07/05 15:59:44;;;;;;;;;;;;;;;;;;5037966;28;19983;-80
2021/07/05 16:02:10;;;;;;;;;;;;;;;;;;5038626;28;19960;-80
2021/07/05 16:04:36;;;;;;;;;;;;;;;;;;5038319;28;19919;-80
2021/07/05 16:07:02;;;;;;;;;;;;;;;;;;5037789;28;19913;-79
2021/07/05 16:09:28;;;;;;;;;;;;;;;;;;5040082;28;19913;-80
2021/07/05 16:11:54;;;;;;;;;;;;;;;;;;5040366;28;19920;-79